Airfield :
LOGIN :

Register | Disclaimer

   EN    FR    IT 

 










Legend :    VFR   Marginal VFR   IFR   Intensive IFR   Very Intensive IFR
Visi :
Ceiling :
>= 8 km
>= 3000ft
5 to 8 km
1000 to 3000 ft
1500m to 5 km
500 to 1000 ft
800 to 1500m
200 to 500 ft
< 800m
< 200 ft
Symbols :   Thunderstorms  Fog  Heavy snow  Heavy precipitations  Wind > 20 kt
SIGMETs :     Misc.  Thunderstorms  Icing  Turbulence  Mountain Waves  Volcanic Ashes






- Airport Elevation : 675 ft
- IATA code : RZE


EPRZ - Rzeszow-Jasionka

CURRENT METAR :
  • 061700Z 21013KT CAVOK M01/M05 Q1016

EXPIRED METARs :
  • 061630Z 21015KT CAVOK M01/M05 Q1016
  • 061600Z 21012KT CAVOK M01/M05 Q1016
  • 061530Z 21013KT CAVOK M01/M05 Q1016
  • 061500Z 21013KT CAVOK M01/M05 Q1016
  • 061430Z 21013KT CAVOK M00/M04 Q1016

TAF TAF EPRZ
Valid from the 06 at 12:00 until the 07 at 12:00 UTC


061130Z 0612/0712 22014KT CAVOK
TEMPO 0612/0616 22020G30KT



MET'MAP, your aeronautical weather chart ! - Copyright ORBIFLY December 2007 - Disclaimer

ORBIFLY MET'MAP TEAM :

Programming & Development : Alexandra Zaïnal
Concept & original design : Baudouin d'Aumeries
Assistance for programming : Marc-Olivier Méhu
Technical & hardware support : Manuel Goepfert

Contact : metmap@orbifly.com




SOURCES & CREDITS :

   NOAA